Time;durP1;ratioP1;P1;durP2;ratioP2;P2;SDS_P1;SDS_P2;PMS_P1;PMS_P2;Temp;Humidity;BMP_temperature;BMP_pressure;BME280_temperature;BME280_humidity;BME280_pressure;Samples;Min_cycle;Max_cycle;Signal;HPM_P1;HPM_P2
2023/02/15 00:01:30;;;;;;;89.65;45.80;;;;;;;3.15;100.00;102992.03;5089899;28;20016;-62
2023/02/15 00:03:55;;;;;;;87.22;44.30;;;;;;;3.15;100.00;102986.81;5091481;28;20398;-68
2023/02/15 00:06:21;;;;;;;86.40;43.42;;;;;;;3.12;100.00;102984.13;5091538;28;20020;-69
2023/02/15 00:08:46;;;;;;;82.68;41.42;;;;;;;3.15;100.00;102985.94;5090988;28;20020;-66
2023/02/15 00:11:14;;;;;;;95.20;45.33;;;;;;;3.12;100.00;102983.22;5090551;28;20028;-65
2023/02/15 00:13:42;;;;;;;92.97;44.70;;;;;;;3.09;100.00;102977.91;5090570;28;20028;-67
2023/02/15 00:16:12;;;;;;;98.95;44.72;;;;;;;3.09;100.00;102970.09;5088760;28;20162;-70
2023/02/15 00:18:38;;;;;;;94.13;45.10;;;;;;;3.10;100.00;102969.28;5088625;28;20493;-68
2023/02/15 00:21:06;;;;;;;93.32;45.55;;;;;;;3.07;100.00;102972.66;5087960;28;20208;-70
2023/02/15 00:23:31;;;;;;;100.15;46.95;;;;;;;3.07;100.00;102963.97;5105381;28;20040;-70
2023/02/15 00:26:07;;;;;;;91.63;47.30;;;;;;;3.08;100.00;102964.03;5083690;28;20030;-63
2023/02/15 00:28:33;;;;;;;96.32;45.53;;;;;;;3.12;100.00;102955.47;5070256;28;20035;-70
2023/02/15 00:31:09;;;;;;;85.45;45.83;;;;;;;3.21;100.00;102957.47;5069675;28;20028;-70
2023/02/15 00:33:35;;;;;;;105.72;47.33;;;;;;;3.29;100.00;102953.38;5070087;28;20028;-66
2023/02/15 00:36:04;;;;;;;91.13;45.97;;;;;;;3.36;100.00;102949.25;5070204;28;20104;-69
2023/02/15 00:38:30;;;;;;;94.87;45.17;;;;;;;3.38;100.00;102952.78;5069911;28;20017;-63
2023/02/15 00:40:57;;;;;;;94.22;42.83;;;;;;;3.36;100.00;102957.06;5081902;28;20279;-70
2023/02/15 00:43:23;;;;;;;93.20;45.22;;;;;;;3.34;100.00;102950.91;5069203;28;20359;-68
2023/02/15 00:45:48;;;;;;;87.47;43.75;;;;;;;3.31;100.00;102945.59;5079201;28;20031;-64
2023/02/15 00:48:13;;;;;;;86.03;42.38;;;;;;;3.30;100.00;102951.66;5089490;28;20024;-66
2023/02/15 00:50:39;;;;;;;89.90;42.10;;;;;;;3.28;100.00;102951.59;5088518;28;20129;-66
2023/02/15 00:53:04;;;;;;;84.97;42.47;;;;;;;3.28;100.00;102954.22;5089209;28;20213;-61
2023/02/15 00:55:30;;;;;;;88.72;42.90;;;;;;;3.34;100.00;102953.50;5088690;28;20032;-68
2023/02/15 00:57:55;;;;;;;86.35;42.15;;;;;;;3.33;100.00;102956.97;5088785;28;20028;-67
2023/02/15 01:00:21;;;;;;;82.05;40.05;;;;;;;3.26;100.00;102953.31;5076008;28;20035;-70
2023/02/15 01:02:47;;;;;;;81.43;41.78;;;;;;;3.21;100.00;102952.25;5070212;28;20029;-70
2023/02/15 01:05:12;;;;;;;80.38;39.97;;;;;;;3.17;100.00;102958.22;5068161;28;20414;-66
2023/02/15 01:07:37;;;;;;;84.95;40.92;;;;;;;3.19;100.00;102947.84;5067785;28;20067;-69
2023/02/15 01:10:05;;;;;;;80.32;39.83;;;;;;;3.18;100.00;102941.75;5068739;28;20074;-69
2023/02/15 01:12:30;;;;;;;73.38;38.42;;;;;;;3.18;100.00;102946.94;5073827;28;20028;-72
2023/02/15 01:14:55;;;;;;;76.00;36.40;;;;;;;3.17;100.00;102939.97;5087901;28;20043;-71
2023/02/15 01:17:21;;;;;;;76.78;36.90;;;;;;;3.18;100.00;102936.53;5066660;28;20094;-64
2023/02/15 01:19:46;;;;;;;72.95;37.85;;;;;;;3.20;100.00;102927.06;5085312;28;20024;-71
2023/02/15 01:22:11;;;;;;;77.97;37.67;;;;;;;3.23;100.00;102926.25;5087817;28;20032;-72
2023/02/15 01:24:37;;;;;;;73.88;36.97;;;;;;;3.24;100.00;102922.78;5086354;28;20040;-70
2023/02/15 01:27:02;;;;;;;80.43;37.78;;;;;;;3.21;100.00;102923.59;5086973;28;20447;-64
2023/02/15 01:29:28;;;;;;;78.03;37.20;;;;;;;3.16;100.00;102918.25;5088398;28;20028;-70
2023/02/15 01:31:53;;;;;;;69.13;37.25;;;;;;;3.13;100.00;102912.06;5088279;28;20413;-69
2023/02/15 01:34:18;;;;;;;71.65;36.03;;;;;;;3.14;100.00;102912.13;5088766;28;20032;-68
2023/02/15 01:36:44;;;;;;;84.72;36.50;;;;;;;3.08;100.00;102913.63;5086701;28;20028;-67
2023/02/15 01:39:10;;;;;;;83.10;37.67;;;;;;;3.01;100.00;102903.03;5067804;28;20037;-67
2023/02/15 01:41:36;;;;;;;73.55;35.28;;;;;;;3.00;100.00;102910.78;5068150;28;20067;-66
2023/02/15 01:44:02;;;;;;;81.68;38.65;;;;;;;3.06;100.00;102903.16;5079310;28;20028;-68
2023/02/15 01:46:43;;;;;;;74.18;37.60;;;;;;;3.01;100.00;102908.22;5087134;28;20469;-72
2023/02/15 01:49:13;;;;;;;77.00;36.78;;;;;;;3.00;100.00;102913.38;5086666;28;20166;-64
2023/02/15 01:51:40;;;;;;;73.32;35.15;;;;;;;2.95;100.00;102907.16;5088143;28;20031;-66
2023/02/15 01:54:15;;;;;;;69.90;34.97;;;;;;;2.93;100.00;102903.63;5087343;28;20035;-70
2023/02/15 01:56:41;;;;;;;74.05;34.78;;;;;;;2.90;100.00;102904.41;5086994;28;20020;-68
2023/02/15 01:59:09;;;;;;;78.60;36.15;;;;;;;2.89;100.00;102906.13;5086817;28;20038;-69
2023/02/15 02:01:35;;;;;;;63.60;35.33;;;;;;;2.90;100.00;102899.22;5087183;28;20024;-73
2023/02/15 02:04:19;;;;;;;75.25;35.03;;;;;;;2.95;100.00;102896.75;5086598;28;20035;-69
2023/02/15 02:06:46;;;;;;;80.03;37.90;;;;;;;3.02;100.00;102889.19;5085971;28;20387;-68
2023/02/15 02:09:12;;;;;;;78.80;38.65;;;;;;;3.03;100.00;102885.72;5084391;28;20028;-72
2023/02/15 02:11:39;;;;;;;80.68;36.65;;;;;;;3.05;100.00;102891.00;5086635;28;20020;-70
2023/02/15 02:14:04;;;;;;;90.53;39.90;;;;;;;3.09;100.00;102885.03;5086573;28;20032;-72
2023/02/15 02:16:48;;;;;;;87.40;38.67;;;;;;;3.09;100.00;102881.53;5087860;28;20031;-71
2023/02/15 02:19:34;;;;;;;82.63;36.95;;;;;;;3.05;100.00;102877.06;5087582;28;20386;-66
2023/02/15 02:22:18;;;;;;;71.18;36.10;;;;;;;2.97;100.00;102880.31;5087633;28;20032;-65
2023/02/15 02:25:00;;;;;;;74.15;35.05;;;;;;;2.94;100.00;102884.53;5071005;28;20048;-70
2023/02/15 02:27:41;;;;;;;74.15;35.67;;;;;;;2.88;100.00;102877.44;5066246;28;20040;-69
2023/02/15 02:30:25;;;;;;;70.63;35.08;;;;;;;2.83;100.00;102876.41;5138847;22;20122;-62
2023/02/15 02:33:03;;;;;;;72.93;34.22;;;;;;;2.73;100.00;102875.22;5047684;28;20116;-72
2023/02/15 02:36:08;;;;;;;63.95;32.08;;;;;;;2.65;100.00;102870.66;5046595;28;20037;-66
2023/02/15 02:38:56;;;;;;;70.75;32.17;;;;;;;2.64;100.00;102861.09;5045089;28;20024;-68
2023/02/15 02:41:40;;;;;;;66.67;32.60;;;;;;;2.64;100.00;102857.59;5046078;28;20060;-67
2023/02/15 02:44:08;;;;;;;65.00;33.72;;;;;;;2.58;100.00;102857.38;5045868;28;20332;-71
2023/02/15 02:46:40;;;;;;;69.28;32.28;;;;;;;2.48;100.00;102851.91;5046786;28;20483;-70
2023/02/15 02:49:05;;;;;;;65.30;31.85;;;;;;;2.42;100.00;102846.50;5065633;28;20094;-71
2023/02/15 02:51:30;;;;;;;63.67;31.42;;;;;;;2.36;100.00;102830.69;5062470;28;20514;-71
2023/02/15 02:53:59;;;;;;;70.43;33.60;;;;;;;2.32;100.00;102839.22;5066107;28;20032;-70
2023/02/15 02:56:47;;;;;;;69.07;31.10;;;;;;;2.28;100.00;102835.63;5066195;28;20025;-73
2023/02/15 02:59:18;;;;;;;57.78;30.38;;;;;;;2.21;100.00;102829.34;5067159;28;20029;-69
2023/02/15 03:01:51;;;;;;;61.53;30.48;;;;;;;2.18;100.00;102833.56;5065468;28;20441;-68
2023/02/15 03:04:31;;;;;;;66.32;32.70;;;;;;;2.12;100.00;102837.75;5065850;28;20021;-67
2023/02/15 03:07:00;;;;;;;67.85;33.63;;;;;;;2.11;100.00;102829.88;5065952;28;20029;-63
2023/02/15 03:09:44;;;;;;;75.05;34.22;;;;;;;2.10;100.00;102830.69;5066450;28;20025;-72
2023/02/15 03:12:13;;;;;;;65.53;32.67;;;;;;;2.09;100.00;102831.53;5064412;28;20032;-68
2023/02/15 03:14:39;;;;;;;64.57;32.50;;;;;;;2.09;100.00;102837.63;5065484;28;20161;-70
2023/02/15 03:17:05;;;;;;;70.22;34.00;;;;;;;2.08;100.00;102837.59;5066253;28;20687;-70
2023/02/15 03:19:33;;;;;;;80.38;36.63;;;;;;;2.11;100.00;102835.09;5064958;28;20932;-70
2023/02/15 03:22:09;;;;;;;67.30;34.30;;;;;;;2.09;100.00;102826.34;5053836;28;20032;-69
2023/02/15 03:24:39;;;;;;;73.88;34.83;;;;;;;2.08;100.00;102821.97;5048552;28;20024;-69
2023/02/15 03:27:07;;;;;;;74.70;36.97;;;;;;;2.05;100.00;102816.66;5049086;28;20083;-63
2023/02/15 03:29:33;;;;;;;79.83;34.37;;;;;;;2.04;100.00;102822.72;5050449;28;20069;-71
2023/02/15 03:32:01;;;;;;;75.68;35.45;;;;;;;2.01;100.00;102821.75;5058549;28;20167;-70
2023/02/15 03:34:27;;;;;;;82.32;34.28;;;;;;;2.00;100.00;102822.59;5070325;28;20020;-71
2023/02/15 03:36:56;;;;;;;82.15;36.22;;;;;;;1.96;100.00;102818.09;5069974;28;20025;-69
2023/02/15 03:39:44;;;;;;;69.95;32.53;;;;;;;1.95;100.00;102818.06;5085480;28;20467;-62
2023/02/15 03:42:24;;;;;;;62.88;32.25;;;;;;;1.92;100.00;102815.38;5070436;28;20040;-64
2023/02/15 03:45:03;;;;;;;59.40;31.77;;;;;;;1.92;100.00;102816.25;5070021;28;20016;-71
2023/02/15 03:47:31;;;;;;;64.03;30.70;;;;;;;1.92;100.00;102813.63;5069643;28;20410;-71
2023/02/15 03:50:01;;;;;;;61.00;31.10;;;;;;;1.89;100.00;102806.63;5052673;28;20025;-70
2023/02/15 03:52:28;;;;;;;65.13;30.35;;;;;;;1.91;100.00;102804.09;5067747;28;20029;-69
2023/02/15 03:54:54;;;;;;;64.03;32.10;;;;;;;1.91;100.00;102809.28;5069752;28;20048;-70
2023/02/15 04:03:09;;;;;;;64.32;32.13;;;;;;;1.96;100.00;102788.63;5069432;28;20063;-71
2023/02/15 04:05:35;;;;;;;72.35;33.45;;;;;;;1.98;100.00;102785.25;5069956;28;20025;-71
2023/02/15 04:08:00;;;;;;;86.68;35.83;;;;;;;1.99;100.00;102781.81;5069712;28;20031;-66
2023/02/15 04:13:09;;;;;;;71.82;35.28;;;;;;;1.99;100.00;102776.59;5066811;28;20036;-68
2023/02/15 04:18:19;;;;;;;83.57;35.88;;;;;;;2.07;100.00;102768.16;5068774;28;20035;-71
2023/02/15 04:26:13;;;;;;;88.75;38.78;;;;;;;2.26;100.00;102769.69;5070106;28;20402;-65
2023/02/15 04:28:38;;;;;;;86.85;39.03;;;;;;;2.31;100.00;102772.41;5069381;28;20041;-64
2023/02/15 04:31:04;;;;;;;91.43;38.83;;;;;;;2.30;100.00;102765.44;5070174;28;20060;-68
2023/02/15 04:33:29;;;;;;;80.75;35.85;;;;;;;2.24;100.00;102764.44;5068299;28;20036;-70
2023/02/15 04:35:55;;;;;;;75.18;35.22;;;;;;;2.19;100.00;102758.19;5069415;28;20021;-70
2023/02/15 04:38:22;;;;;;;79.07;34.22;;;;;;;2.17;100.00;102764.16;5070007;28;20049;-67
2023/02/15 04:40:51;;;;;;;71.20;34.05;;;;;;;2.11;100.00;102770.06;5069897;28;20033;-63
2023/02/15 04:43:18;;;;;;;70.28;33.15;;;;;;;2.07;100.00;102766.47;5070161;28;20043;-72
2023/02/15 04:45:48;;;;;;;71.43;33.22;;;;;;;2.06;100.00;102766.41;5069396;28;20525;-68
2023/02/15 04:48:14;;;;;;;81.88;34.85;;;;;;;2.09;100.00;102770.00;5069518;28;20493;-69
2023/02/15 04:50:39;;;;;;;82.18;34.95;;;;;;;2.07;100.00;102763.88;5069056;28;20024;-71
2023/02/15 04:53:04;;;;;;;87.85;35.78;;;;;;;2.04;100.00;102758.56;5063856;28;20375;-70
2023/02/15 04:55:30;;;;;;;84.45;34.30;;;;;;;2.00;100.00;102759.31;5067953;28;20107;-66
2023/02/15 04:57:55;;;;;;;67.25;31.85;;;;;;;1.97;100.00;102754.88;5068154;28;20104;-71
2023/02/15 05:00:21;;;;;;;74.85;33.85;;;;;;;1.96;100.00;102753.09;5069285;28;20059;-70
2023/02/15 05:02:46;;;;;;;65.50;33.58;;;;;;;1.95;100.00;102753.03;5067192;28;20021;-72
2023/02/15 05:05:12;;;;;;;67.38;31.63;;;;;;;1.93;100.00;102759.94;5065443;28;20311;-64
2023/02/15 05:07:38;;;;;;;71.35;34.65;;;;;;;1.96;100.00;102753.09;5074657;28;20066;-71
2023/02/15 05:10:03;;;;;;;74.40;35.25;;;;;;;1.97;100.00;102756.59;5067719;28;20021;-72
2023/02/15 05:12:29;;;;;;;81.00;36.33;;;;;;;1.98;100.00;102746.25;5067621;28;20063;-72
2023/02/15 05:14:54;;;;;;;73.60;33.90;;;;;;;1.99;100.00;102747.13;5069114;28;20113;-71
2023/02/15 05:17:19;;;;;;;73.07;33.95;;;;;;;2.01;100.00;102742.84;5069245;28;20056;-69
2023/02/15 05:19:45;;;;;;;87.72;37.33;;;;;;;2.03;100.00;102751.59;5063950;28;20243;-62
2023/02/15 05:22:10;;;;;;;78.50;35.78;;;;;;;2.01;100.00;102748.06;5068267;28;20052;-63
2023/02/15 05:30:04;;;;;;;91.18;36.63;;;;;;;2.11;100.00;102744.06;5067810;28;20458;-70
2023/02/15 05:32:30;;;;;;;97.53;39.47;;;;;;;2.25;100.00;102732.38;5067129;28;20521;-71
2023/02/15 05:34:55;;;;;;;91.85;39.60;;;;;;;2.35;100.00;102732.66;5066189;28;20028;-69
2023/02/15 05:37:20;;;;;;;99.13;42.15;;;;;;;2.45;100.00;102733.81;5069144;28;20027;-71
2023/02/15 05:39:46;;;;;;;87.97;40.03;;;;;;;2.50;100.00;102730.50;5065242;28;20056;-73
2023/02/15 05:42:11;;;;;;;97.57;40.33;;;;;;;2.57;100.00;102728.09;5064423;28;20089;-66
2023/02/15 05:44:36;;;;;;;94.82;40.92;;;;;;;2.57;100.00;102734.19;5062646;28;20390;-69
2023/02/15 05:47:02;;;;;;;100.22;40.97;;;;;;;2.58;100.00;102729.84;5068546;28;20120;-70
2023/02/15 05:49:28;;;;;;;90.43;40.20;;;;;;;2.59;100.00;102731.66;5067745;28;20032;-71
2023/02/15 05:51:54;;;;;;;88.20;40.40;;;;;;;2.56;100.00;102722.00;5068108;28;20021;-71
2023/02/15 05:54:19;;;;;;;99.35;40.22;;;;;;;2.61;100.00;102719.53;5067536;28;20102;-70
2023/02/15 05:56:44;;;;;;;98.25;41.15;;;;;;;2.65;100.00;102722.28;5066991;28;20021;-71
2023/02/15 05:59:10;;;;;;;100.70;40.70;;;;;;;2.77;100.00;102724.38;5068323;28;20024;-71
2023/02/15 06:01:35;;;;;;;97.45;42.08;;;;;;;2.90;100.00;102717.81;5066890;28;20025;-71
2023/02/15 06:04:00;;;;;;;97.88;41.20;;;;;;;2.97;100.00;102720.56;5066492;28;20429;-70
2023/02/15 06:06:26;;;;;;;104.97;42.30;;;;;;;3.02;100.00;102722.47;5066974;28;20040;-67
2023/02/15 06:08:51;;;;;;;94.57;39.20;;;;;;;3.00;100.00;102718.94;5066597;28;20108;-66
2023/02/15 06:11:17;;;;;;;103.80;39.65;;;;;;;3.03;100.00;102711.22;5064519;28;20510;-69
2023/02/15 06:13:42;;;;;;;104.55;41.97;;;;;;;3.06;100.00;102720.81;5047419;28;20150;-65
2023/02/15 06:16:07;;;;;;;89.32;40.65;;;;;;;3.07;100.00;102724.31;5047642;28;20075;-68
2023/02/15 06:18:33;;;;;;;93.53;40.05;;;;;;;3.03;100.00;102728.56;5047305;28;20079;-68
2023/02/15 06:20:58;;;;;;;98.88;41.72;;;;;;;2.98;100.00;102720.59;5047049;28;20028;-69
2023/02/15 06:23:24;;;;;;;99.43;40.85;;;;;;;3.01;100.00;102720.69;5062671;28;20028;-68
2023/02/15 06:25:49;;;;;;;105.15;42.20;;;;;;;3.00;100.00;102711.13;5067068;28;20021;-69
2023/02/15 06:28:15;;;;;;;94.72;40.25;;;;;;;3.01;100.00;102719.84;5065472;28;20401;-69
2023/02/15 06:30:40;;;;;;;94.05;40.15;;;;;;;2.96;100.00;102719.69;5066622;28;20035;-66
2023/02/15 06:33:05;;;;;;;95.22;39.28;;;;;;;2.95;100.00;102719.66;5061916;28;20021;-71
2023/02/15 06:35:31;;;;;;;95.47;39.70;;;;;;;2.88;100.00;102718.59;5055323;28;20075;-70
2023/02/15 06:37:56;;;;;;;102.22;40.17;;;;;;;2.92;100.00;102724.78;5067032;28;20446;-70
2023/02/15 06:40:21;;;;;;;95.53;40.03;;;;;;;2.79;100.00;102732.22;5066538;28;20433;-64
2023/02/15 06:42:47;;;;;;;103.38;38.92;;;;;;;2.77;100.00;102718.28;5067850;28;20036;-70
2023/02/15 06:45:12;;;;;;;101.70;40.22;;;;;;;2.72;100.00;102727.69;5058474;28;20548;-74
2023/02/15 06:47:38;;;;;;;89.47;38.92;;;;;;;2.67;100.00;102717.13;5054638;28;20440;-75
2023/02/15 06:50:04;;;;;;;95.72;39.08;;;;;;;2.64;100.00;102719.63;5064603;28;20040;-72
2023/02/15 06:52:30;;;;;;;96.80;40.33;;;;;;;2.62;100.00;102716.97;5066231;28;20016;-73
2023/02/15 06:54:55;;;;;;;109.55;40.80;;;;;;;2.61;100.00;102715.22;5065191;28;20093;-71
2023/02/15 06:57:20;;;;;;;110.95;42.22;;;;;;;2.70;100.00;102717.22;5069126;28;20028;-70
2023/02/15 06:59:46;;;;;;;106.97;42.40;;;;;;;2.72;100.00;102707.75;5070568;28;20024;-71
2023/02/15 07:02:12;;;;;;;106.50;42.65;;;;;;;2.74;100.00;102705.19;5071156;28;20058;-71
2023/02/15 07:04:37;;;;;;;98.47;41.38;;;;;;;2.75;100.00;102713.03;5070987;28;20039;-67
2023/02/15 07:07:03;;;;;;;95.03;43.25;;;;;;;2.77;100.00;102711.34;5071227;28;20202;-69
2023/02/15 07:09:28;;;;;;;108.03;43.08;;;;;;;2.84;100.00;102704.59;5070016;28;20077;-68
2023/02/15 07:14:37;;;;;;;104.95;42.90;;;;;;;2.97;100.00;102702.34;5070205;28;20063;-69
2023/02/15 07:17:03;;;;;;;102.55;41.17;;;;;;;2.94;100.00;102707.44;5070037;28;20032;-69
2023/02/15 07:19:28;;;;;;;98.13;41.15;;;;;;;2.95;100.00;102707.50;5070330;28;20028;-73
2023/02/15 07:21:53;;;;;;;97.82;40.08;;;;;;;2.94;100.00;102708.34;5070479;28;20680;-73
2023/02/15 07:24:19;;;;;;;95.32;40.83;;;;;;;2.94;100.00;102704.84;5069984;28;20048;-74
2023/02/15 07:26:44;;;;;;;100.72;40.88;;;;;;;2.91;100.00;102708.25;5060527;28;20024;-70
2023/02/15 07:29:09;;;;;;;95.18;41.40;;;;;;;2.89;100.00;102700.41;5063689;28;20036;-77
2023/02/15 07:31:35;;;;;;;95.18;41.70;;;;;;;2.93;100.00;102696.16;5070394;28;20032;-75
2023/02/15 07:34:00;;;;;;;109.00;44.60;;;;;;;2.95;100.00;102689.25;5068928;28;20032;-69
2023/02/15 07:36:25;;;;;;;98.97;43.85;;;;;;;2.97;100.00;102692.81;5069718;28;20051;-66
2023/02/15 07:38:51;;;;;;;96.65;42.67;;;;;;;3.03;100.00;102689.47;5069413;28;20028;-64
2023/02/15 07:41:16;;;;;;;114.32;44.40;;;;;;;3.06;100.00;102686.06;5070616;28;20145;-68
2023/02/15 07:43:44;;;;;;;99.53;43.75;;;;;;;3.11;100.00;102679.28;5070004;28;20063;-68
2023/02/15 07:46:11;;;;;;;108.55;44.30;;;;;;;3.13;100.00;102688.03;5071237;28;20442;-70
2023/02/15 07:48:39;;;;;;;109.45;45.90;;;;;;;3.13;100.00;102681.06;5071418;28;20043;-69
2023/02/15 07:51:06;;;;;;;102.50;44.30;;;;;;;3.22;100.00;102671.75;5071121;28;20438;-70
2023/02/15 07:53:32;;;;;;;114.35;46.78;;;;;;;3.27;100.00;102670.16;5067028;28;20033;-69
2023/02/15 07:55:59;;;;;;;108.28;47.13;;;;;;;3.21;100.00;102670.88;5071638;28;20027;-67
2023/02/15 07:58:50;;;;;;;107.97;47.08;;;;;;;3.24;100.00;102663.13;5068136;28;20095;-69
2023/02/15 08:01:10;;;;;;;99.60;43.85;;;;;;;3.29;100.00;102666.72;5070402;28;20067;-65
2023/02/15 08:03:35;;;;;;;98.03;47.72;;;;;;;3.20;100.00;102673.44;5064813;28;20394;-71
2023/02/15 08:06:00;;;;;;;99.72;44.78;;;;;;;3.31;100.00;102668.50;5063927;28;20024;-68
2023/02/15 08:08:29;;;;;;;104.50;45.80;;;;;;;3.41;100.00;102667.91;5059635;28;20078;-70
2023/02/15 08:11:33;;;;;;;107.22;46.80;;;;;;;3.43;100.00;102667.94;5058536;28;20113;-73
2023/02/15 08:13:59;;;;;;;98.47;44.85;;;;;;;3.52;100.00;102666.44;5062090;28;20042;-72
2023/02/15 08:16:24;;;;;;;110.13;51.78;;;;;;;3.54;100.00;102669.09;5051252;28;20108;-71
2023/02/15 08:18:51;;;;;;;102.85;48.20;;;;;;;3.59;100.00;102666.59;5065617;28;20116;-70
2023/02/15 08:21:17;;;;;;;110.55;47.25;;;;;;;3.63;100.00;102663.22;5053049;28;20081;-64
2023/02/15 08:23:42;;;;;;;95.63;45.08;;;;;;;3.61;100.00;102667.53;5052000;28;20045;-70
2023/02/15 08:26:07;;;;;;;100.00;47.35;;;;;;;3.67;100.00;102665.94;5053408;28;20124;-69
2023/02/15 08:28:33;;;;;;;94.25;44.78;;;;;;;3.64;100.00;102663.25;5058137;28;20032;-70
2023/02/15 08:31:06;;;;;;;109.22;47.20;;;;;;;3.73;100.00;102664.34;5058807;28;20082;-68
2023/02/15 08:33:31;;;;;;;98.68;45.97;;;;;;;3.74;100.00;102660.88;5060672;28;20053;-72
2023/02/15 08:36:02;;;;;;;97.90;42.78;;;;;;;3.68;100.00;102661.63;5057786;28;20107;-70
2023/02/15 08:38:27;;;;;;;86.95;42.97;;;;;;;3.69;100.00;102658.16;5064503;28;20029;-70
2023/02/15 08:40:53;;;;;;;95.80;43.78;;;;;;;3.75;100.00;102655.72;5058332;28;20029;-70
2023/02/15 08:43:18;;;;;;;102.15;44.72;;;;;;;3.91;100.00;102649.13;5061727;28;20024;-67
2023/02/15 08:45:43;;;;;;;89.45;45.92;;;;;;;3.94;100.00;102656.13;5068278;28;20242;-72
2023/02/15 08:48:12;;;;;;;91.97;45.03;;;;;;;4.02;100.00;102658.91;5082898;28;20052;-64
2023/02/15 08:50:37;;;;;;;99.30;44.07;;;;;;;4.17;100.00;102658.38;5067036;28;20052;-64
2023/02/15 08:53:03;;;;;;;92.50;44.88;;;;;;;4.21;100.00;102657.59;5062247;28;20335;-63
2023/02/15 08:55:28;;;;;;;80.93;43.40;;;;;;;4.24;100.00;102662.91;5053297;28;20036;-65
2023/02/15 08:57:55;;;;;;;88.63;44.05;;;;;;;4.31;100.00;102663.94;5067868;28;20514;-64
2023/02/15 09:00:22;;;;;;;78.57;40.78;;;;;;;4.33;100.00;102657.00;5068701;28;20040;-67
2023/02/15 09:02:48;;;;;;;83.70;43.33;;;;;;;4.29;100.00;102657.78;5067552;28;20024;-62
2023/02/15 09:05:13;;;;;;;78.05;41.65;;;;;;;4.51;100.00;102669.56;5067941;28;20363;-58
2023/02/15 09:07:39;;;;;;;82.03;40.72;;;;;;;4.67;100.00;102665.53;5067260;28;20081;-65
2023/02/15 09:10:05;;;;;;;86.65;40.60;;;;;;;4.83;100.00;102663.22;5060693;28;20064;-64
2023/02/15 09:12:30;;;;;;;74.13;38.50;;;;;;;4.88;100.00;102668.56;5047090;28;20086;-66
2023/02/15 09:14:55;;;;;;;75.60;40.45;;;;;;;5.08;100.00;102662.84;5051228;28;20016;-64
2023/02/15 09:17:21;;;;;;;75.93;40.60;;;;;;;5.18;100.00;102664.75;5060432;28;20071;-65
2023/02/15 09:19:46;;;;;;;71.30;39.35;;;;;;;5.21;100.00;102666.53;5049976;28;20609;-63
2023/02/15 09:22:11;;;;;;;74.72;38.35;;;;;;;5.23;100.00;102668.31;5067777;28;20035;-64
2023/02/15 09:24:37;;;;;;;76.53;38.88;;;;;;;5.34;100.00;102660.69;5051744;28;20430;-66
2023/02/15 09:27:02;;;;;;;78.15;39.20;;;;;;;5.05;100.00;102667.13;5057215;28;20131;-65
2023/02/15 09:29:28;;;;;;;71.13;38.53;;;;;;;5.10;100.00;102658.50;5068227;28;20044;-66
2023/02/15 09:31:53;;;;;;;70.90;39.63;;;;;;;5.20;100.00;102662.19;5057689;28;20686;-65
2023/02/15 09:34:22;;;;;;;71.97;38.40;;;;;;;5.27;100.00;102659.69;5051289;28;20059;-66
2023/02/15 09:36:48;;;;;;;71.68;38.20;;;;;;;5.26;100.00;102663.16;5055604;28;20071;-61
2023/02/15 09:39:16;;;;;;;70.53;37.10;;;;;;;5.36;100.00;102660.72;5065137;28;20032;-60
2023/02/15 09:42:04;;;;;;;67.88;37.60;;;;;;;5.50;100.00;102659.19;5062123;28;20536;-64
2023/02/15 09:45:03;;;;;;;65.72;36.22;;;;;;;5.67;100.00;102656.00;5063596;28;20111;-63
2023/02/15 09:47:44;;;;;;;68.10;36.10;;;;;;;5.84;100.00;102655.38;5056799;28;20107;-64
2023/02/15 09:50:33;;;;;;;67.75;36.80;;;;;;;5.99;100.00;102652.97;5070945;28;20029;-63
2023/02/15 09:53:13;;;;;;;68.95;35.47;;;;;;;6.14;100.00;102643.63;5069458;28;20033;-65
2023/02/15 09:56:12;;;;;;;69.03;35.53;;;;;;;6.06;100.00;102649.63;5059051;28;20040;-65
2023/02/15 09:59:05;;;;;;;61.05;33.00;;;;;;;6.37;100.00;102650.88;5056144;28;20028;-64
2023/02/15 10:01:40;;;;;;;60.47;33.63;;;;;;;6.60;100.00;102652.94;5063884;28;20664;-64
2023/02/15 10:04:30;;;;;;;65.53;34.53;;;;;;;6.67;100.00;102649.53;5068175;28;20027;-63
2023/02/15 10:07:08;;;;;;;63.20;34.67;;;;;;;6.77;100.00;102642.66;5067942;28;20048;-65
2023/02/15 10:09:39;;;;;;;61.10;33.67;;;;;;;6.90;100.00;102649.78;5065448;28;20020;-64
2023/02/15 10:12:26;;;;;;;61.28;33.70;;;;;;;6.91;100.00;102648.03;5067280;28;20041;-64
2023/02/15 10:14:51;;;;;;;57.60;32.50;;;;;;;6.99;100.00;102648.13;5067243;28;20032;-60
2023/02/15 10:17:40;;;;;;;60.58;33.05;;;;;;;7.27;100.00;102654.53;5067849;28;20158;-65
2023/02/15 10:20:11;;;;;;;60.58;34.65;;;;;;;7.38;100.00;102651.13;5067271;28;20029;-67
2023/02/15 10:22:58;;;;;;;59.80;33.17;;;;;;;7.30;100.00;102651.03;5063067;28;20475;-66
2023/02/15 10:25:47;;;;;;;66.95;33.03;;;;;;;7.55;100.00;102652.13;5059285;28;20462;-61
2023/02/15 10:28:18;;;;;;;62.53;33.00;;;;;;;7.65;100.00;102650.44;5054229;28;20029;-57
2023/02/15 10:30:48;;;;;;;60.00;32.75;;;;;;;7.75;100.00;102653.13;5063321;28;20086;-63
2023/02/15 10:33:31;;;;;;;56.15;33.22;;;;;;;7.96;100.00;102648.06;5064861;28;20031;-62
2023/02/15 10:36:24;;;;;;;64.13;35.47;;;;;;;7.97;100.00;102646.28;5065186;28;20027;-61
2023/02/15 10:39:00;;;;;;;60.65;34.33;;;;;;;8.16;100.00;102643.78;5065491;28;20374;-62
2023/02/15 10:41:38;;;;;;;57.10;32.63;;;;;;;8.28;100.00;102641.19;5065418;28;20126;-63
2023/02/15 10:44:15;;;;;;;56.97;34.03;;;;;;;8.47;100.00;102639.56;5066926;28;20039;-63
2023/02/15 10:46:53;;;;;;;61.50;32.67;;;;;;;8.36;100.00;102635.13;5066394;28;20039;-62
2023/02/15 10:49:27;;;;;;;62.38;34.05;;;;;;;8.41;100.00;102634.28;5064194;28;20424;-63
2023/02/15 10:52:10;;;;;;;56.78;33.70;;;;;;;8.39;100.00;102636.00;5065782;28;20476;-64
2023/02/15 10:54:48;;;;;;;63.70;34.90;;;;;;;8.55;100.00;102636.97;5065354;28;20062;-65
2023/02/15 10:57:47;;;;;;;60.92;33.78;;;;;;;8.85;100.00;102626.53;5066222;28;20522;-62
2023/02/15 11:00:45;;;;;;;65.30;33.25;;;;;;;8.98;100.00;102609.91;5034811;28;20168;-65
2023/02/15 11:03:26;;;;;;;67.15;35.15;;;;;;;9.11;100.00;102607.31;5044005;28;20032;-63
2023/02/15 11:06:03;;;;;;;58.67;32.15;;;;;;;9.21;100.00;102611.69;5054440;28;20025;-61
2023/02/15 11:08:33;;;;;;;55.22;32.65;;;;;;;9.20;100.00;102601.16;5053375;28;20050;-65
2023/02/15 11:11:03;;;;;;;57.60;32.42;;;;;;;9.18;100.00;102595.03;5050578;28;20029;-61
2023/02/15 11:13:33;;;;;;;66.80;33.45;;;;;;;9.33;100.00;102600.28;5047340;28;20099;-63
2023/02/15 11:16:05;;;;;;;59.63;33.83;;;;;;;9.64;100.00;102593.25;5048172;28;20050;-60
2023/02/15 11:18:31;;;;;;;54.85;30.20;;;;;;;9.77;100.00;102587.06;5063926;28;20025;-66
2023/02/15 11:21:11;;;;;;;56.88;31.73;;;;;;;10.09;100.00;102583.47;5065486;28;20035;-67
2023/02/15 11:23:41;;;;;;;55.90;31.63;;;;;;;10.18;100.00;102584.31;5052869;28;20367;-66
2023/02/15 11:26:14;;;;;;;59.55;31.95;;;;;;;10.29;100.00;102598.31;5060403;28;20455;-66
2023/02/15 11:28:47;;;;;;;59.05;32.72;;;;;;;10.41;100.00;102597.38;5066718;28;20071;-63
2023/02/15 11:31:17;;;;;;;56.88;30.15;;;;;;;10.54;99.67;102587.66;5065966;28;20221;-66
2023/02/15 11:33:46;;;;;;;61.22;32.92;;;;;;;10.65;99.03;102579.72;5050542;28;20040;-65
2023/02/15 11:36:26;;;;;;;58.97;32.45;;;;;;;10.65;98.57;102574.44;5048520;28;20067;-68
2023/02/15 11:39:03;;;;;;;55.35;31.02;;;;;;;10.92;99.03;102582.16;5059677;28;20012;-62
2023/02/15 11:41:32;;;;;;;62.20;33.13;;;;;;;11.20;97.62;102579.31;5065797;28;20062;-68
2023/02/15 11:44:07;;;;;;;55.80;31.65;;;;;;;11.16;97.63;102580.22;5067888;28;20112;-64
2023/02/15 11:46:33;;;;;;;54.08;30.35;;;;;;;11.21;95.91;102581.06;5071052;28;20021;-67